Time;durP1;ratioP1;P1;durP2;ratioP2;P2;SDS_P1;SDS_P2;PMS_P1;PMS_P2;Temp;Humidity;BMP_temperature;BMP_pressure;BME280_temperature;BME280_humidity;BME280_pressure;Samples;Min_cycle;Max_cycle;Signal;HPM_P1;HPM_P2
2022/09/04 00:00:09;;;;;;;6.30;5.70;;;;;;;;;;5054406;28;20033;-43
2022/09/04 00:02:56;;;;;;;10.57;5.75;;;;;;;;;;5054529;28;20028;-42
2022/09/04 00:05:26;;;;;;;9.95;5.78;;;;;;;;;;5054238;28;20389;-43
2022/09/04 00:08:01;;;;;;;7.72;5.50;;;;;;;;;;5054304;28;20033;-43
2022/09/04 00:10:28;;;;;;;5.88;5.00;;;;;;;;;;5054241;28;20021;-44
2022/09/04 00:13:09;;;;;;;6.57;5.72;;;;;;;;;;5054052;28;20025;-43
2022/09/04 00:15:46;;;;;;;6.25;5.65;;;;;;;;;;5054094;28;20111;-42
2022/09/04 00:18:20;;;;;;;7.13;5.68;;;;;;;;;;5054347;28;20024;-46
2022/09/04 00:20:56;;;;;;;5.93;5.32;;;;;;;;;;5054294;28;20028;-43
2022/09/04 00:23:38;;;;;;;9.02;5.60;;;;;;;;;;5053881;28;20033;-43
2022/09/04 00:26:11;;;;;;;5.32;4.80;;;;;;;;;;5053897;28;20033;-43
2022/09/04 00:28:48;;;;;;;6.22;5.63;;;;;;;;;;5053819;28;20021;-43
2022/09/04 00:31:16;;;;;;;18.80;5.68;;;;;;;;;;5053769;28;20083;-43
2022/09/04 00:33:47;;;;;;;7.38;5.43;;;;;;;;;;5054277;28;20036;-43
2022/09/04 00:36:16;;;;;;;6.78;6.10;;;;;;;;;;5053973;28;20027;-45
2022/09/04 00:38:53;;;;;;;7.00;6.25;;;;;;;;;;5053647;28;20099;-43
2022/09/04 00:41:40;;;;;;;6.95;6.07;;;;;;;;;;5053608;28;20021;-44
2022/09/04 00:44:30;;;;;;;7.03;6.20;;;;;;;;;;5053457;28;20025;-43
2022/09/04 00:47:23;;;;;;;6.80;5.82;;;;;;;;;;5053747;28;20380;-44
2022/09/04 00:49:59;;;;;;;6.72;6.13;;;;;;;;;;5053461;28;20040;-43
2022/09/04 00:52:58;;;;;;;6.13;5.53;;;;;;;;;;5053526;28;20434;-43
2022/09/04 00:55:43;;;;;;;5.60;5.10;;;;;;;;;;5053300;28;20033;-43
2022/09/04 00:58:34;;;;;;;7.05;5.57;;;;;;;;;;5053257;28;20032;-43
2022/09/04 01:01:00;;;;;;;5.47;4.97;;;;;;;;;;5043263;28;20033;-43
2022/09/04 01:03:48;;;;;;;5.85;5.25;;;;;;;;;;5053068;28;20036;-42
2022/09/04 01:06:30;;;;;;;8.93;5.38;;;;;;;;;;5053374;28;20037;-44
2022/09/04 01:09:09;;;;;;;5.88;5.22;;;;;;;;;;5053127;28;20029;-43
2022/09/04 01:11:42;;;;;;;8.10;6.07;;;;;;;;;;5052998;28;20476;-43
2022/09/04 01:14:17;;;;;;;7.53;5.22;;;;;;;;;;5052988;28;20028;-43
2022/09/04 01:17:08;;;;;;;5.57;5.07;;;;;;;;;;5053539;28;20032;-42
2022/09/04 01:19:57;;;;;;;5.30;4.80;;;;;;;;;;5052868;28;20704;-43
2022/09/04 01:22:43;;;;;;;6.75;5.20;;;;;;;;;;5052785;28;20041;-43
2022/09/04 01:25:26;;;;;;;7.85;6.00;;;;;;;;;;5053359;28;20040;-42
2022/09/04 01:28:06;;;;;;;6.75;6.05;;;;;;;;;;5052788;28;20025;-43
2022/09/04 01:30:58;;;;;;;;;;;;;;;;;;5053199;28;20124;-44
2022/09/04 01:33:34;;;;;;;8.00;6.22;;;;;;;;;;5052708;28;19939;-43
2022/09/04 01:36:09;;;;;;;9.07;6.07;;;;;;;;;;5052607;28;20031;-43
2022/09/04 01:38:49;;;;;;;8.82;6.57;;;;;;;;;;5052116;28;20040;-42
2022/09/04 01:41:15;;;;;;;6.55;5.85;;;;;;;;;;5052549;28;20040;-44
2022/09/04 01:43:41;;;;;;;8.07;6.72;;;;;;;;;;5052677;28;20115;-43
2022/09/04 01:46:18;;;;;;;7.18;6.40;;;;;;;;;;5052731;28;20021;-43
2022/09/04 01:48:59;;;;;;;8.57;6.63;;;;;;;;;;5052416;28;20033;-42
2022/09/04 01:51:24;;;;;;;;;;;;;;;;;;5052879;28;20029;-43
2022/09/04 01:54:07;;;;;;;8.52;6.57;;;;;;;;;;5052305;28;20012;-42
2022/09/04 01:56:58;;;;;;;9.25;7.00;;;;;;;;;;5052564;28;20108;-44
2022/09/04 01:59:41;;;;;;;7.68;6.68;;;;;;;;;;5048084;28;20377;-43
2022/09/04 02:02:25;;;;;;;8.32;6.25;;;;;;;;;;5052550;28;20112;-42
2022/09/04 02:05:03;;;;;;;12.00;6.72;;;;;;;;;;5052468;28;20025;-42
2022/09/04 02:07:39;;;;;;;8.63;7.28;;;;;;;;;;5052273;28;20091;-43
2022/09/04 02:10:07;;;;;;;10.85;6.78;;;;;;;;;;5052212;28;20033;-42
2022/09/04 02:12:49;;;;;;;8.93;7.65;;;;;;;;;;5052460;28;20384;-42
2022/09/04 02:15:42;;;;;;;9.68;7.70;;;;;;;;;;5052203;28;20029;-42
2022/09/04 02:18:32;;;;;;;7.82;7.05;;;;;;;;;;5052348;28;20036;-43
2022/09/04 02:21:13;;;;;;;8.88;7.63;;;;;;;;;;5052120;28;20021;-43
2022/09/04 02:23:54;;;;;;;12.80;7.97;;;;;;;;;;5052024;28;20477;-43
2022/09/04 02:26:31;;;;;;;12.15;7.88;;;;;;;;;;5052083;28;20473;-42
2022/09/04 02:29:04;;;;;;;10.32;7.55;;;;;;;;;;5052279;28;20021;-43
2022/09/04 02:31:52;;;;;;;10.05;8.30;;;;;;;;;;5051918;28;20558;-42
2022/09/04 02:34:47;;;;;;;6.88;6.18;;;;;;;;;;5052205;28;20057;-42
2022/09/04 02:37:21;;;;;;;11.00;6.95;;;;;;;;;;5043997;28;20094;-43
2022/09/04 02:40:17;;;;;;;8.55;6.80;;;;;;;;;;5051962;28;20090;-43
2022/09/04 02:42:54;;;;;;;7.82;7.03;;;;;;;;;;5050719;28;20440;-42
2022/09/04 02:45:52;;;;;;;10.25;8.25;;;;;;;;;;5052145;28;20025;-42
2022/09/04 02:48:46;;;;;;;10.10;7.60;;;;;;;;;;5050583;28;20369;-42
2022/09/04 02:51:52;;;;;;;13.02;9.05;;;;;;;;;;5052785;28;20032;-43
2022/09/04 02:54:47;;;;;;;10.13;8.32;;;;;;;;;;5055419;28;20527;-42
2022/09/04 02:57:38;;;;;;;9.75;8.18;;;;;;;;;;5055494;28;20068;-43
2022/09/04 03:00:18;;;;;;;8.75;7.57;;;;;;;;;;5055453;28;20108;-43
2022/09/04 03:02:53;;;;;;;;;;;;;;;;;;5055905;28;20388;-42
2022/09/04 03:05:25;;;;;;;8.02;7.05;;;;;;;;;;5055357;28;19920;-42
2022/09/04 03:08:15;;;;;;;8.98;6.75;;;;;;;;;;5055335;28;20063;-42
2022/09/04 03:10:44;;;;;;;8.82;7.40;;;;;;;;;;5055347;28;20534;-43
2022/09/04 03:13:28;;;;;;;6.72;6.10;;;;;;;;;;5055566;28;20040;-43
2022/09/04 03:15:54;;;;;;;10.32;7.25;;;;;;;;;;5055562;28;20021;-43
2022/09/04 03:18:30;;;;;;;8.07;7.28;;;;;;;;;;5055094;28;20036;-44
2022/09/04 03:21:06;;;;;;;7.90;7.10;;;;;;;;;;5055157;28;20484;-42
2022/09/04 03:23:37;;;;;;;8.02;7.22;;;;;;;;;;5055075;28;20083;-42
2022/09/04 03:26:21;;;;;;;7.15;6.45;;;;;;;;;;5054964;28;20485;-43
2022/09/04 03:29:15;;;;;;;7.72;6.45;;;;;;;;;;5055012;28;20021;-42
2022/09/04 03:31:58;;;;;;;8.15;7.10;;;;;;;;;;5054831;28;20064;-45
2022/09/04 03:34:41;;;;;;;8.25;7.15;;;;;;;;;;5054958;28;20029;-42
2022/09/04 03:37:25;;;;;;;10.63;6.95;;;;;;;;;;5054712;28;20017;-42
2022/09/04 03:40:13;;;;;;;8.38;7.50;;;;;;;;;;5054944;28;20033;-43
2022/09/04 03:43:18;;;;;;;12.05;6.22;;;;;;;;;;5051488;28;20476;-42
2022/09/04 03:46:04;;;;;;;6.55;5.88;;;;;;;;;;5054753;28;20044;-42
2022/09/04 03:48:30;;;;;;;6.82;6.18;;;;;;;;;;5054650;28;20469;-43
2022/09/04 03:51:21;;;;;;;6.50;5.57;;;;;;;;;;5054560;28;20033;-42
2022/09/04 03:54:27;;;;;;;5.93;5.18;;;;;;;;;;5053134;28;20041;-42
2022/09/04 03:56:59;;;;;;;5.90;5.05;;;;;;;;;;5054758;28;20044;-42
2022/09/04 03:59:33;;;;;;;6.30;5.50;;;;;;;;;;5054651;28;20419;-42
2022/09/04 04:02:05;;;;;;;8.65;6.10;;;;;;;;;;5053968;28;20040;-43
2022/09/04 04:04:46;;;;;;;6.03;5.43;;;;;;;;;;5054201;28;20047;-42
2022/09/04 04:07:34;;;;;;;6.45;5.82;;;;;;;;;;5054558;28;20032;-42
2022/09/04 04:10:20;;;;;;;6.65;4.82;;;;;;;;;;5054364;28;20082;-42
2022/09/04 04:13:12;;;;;;;8.48;6.25;;;;;;;;;;5054172;28;20025;-42
2022/09/04 04:16:10;;;;;;;8.98;6.63;;;;;;;;;;5054055;28;20032;-42
2022/09/04 04:18:56;;;;;;;8.38;7.07;;;;;;;;;;5054138;28;20685;-43
2022/09/04 04:22:00;;;;;;;9.98;6.80;;;;;;;;;;5053980;28;20068;-42
2022/09/04 04:24:37;;;;;;;8.90;7.60;;;;;;;;;;5053780;28;20028;-42
2022/09/04 04:27:25;;;;;;;7.55;6.82;;;;;;;;;;5053985;28;20032;-42
2022/09/04 04:29:56;;;;;;;8.00;6.40;;;;;;;;;;5053804;28;20096;-42
2022/09/04 04:32:55;;;;;;;7.43;6.45;;;;;;;;;;5053789;28;20021;-42
2022/09/04 04:35:53;;;;;;;7.63;6.20;;;;;;;;;;5054076;28;20056;-42
2022/09/04 04:38:38;;;;;;;7.53;6.40;;;;;;;;;;5053712;28;20032;-42
2022/09/04 04:42:03;;;;;;;9.00;6.72;;;;;;;;;;5053907;28;20036;-42
2022/09/04 04:47:34;;;;;;;8.48;5.25;;;;;;;;;;5053544;28;20044;-42
2022/09/04 04:50:21;;;;;;;5.85;5.13;;;;;;;;;;5053377;28;20021;-42
2022/09/04 04:53:21;;;;;;;6.18;5.57;;;;;;;;;;5053575;28;20136;-42
2022/09/04 04:56:13;;;;;;;8.30;5.38;;;;;;;;;;5053679;28;20415;-42
2022/09/04 04:58:56;;;;;;;7.50;6.13;;;;;;;;;;5053561;28;20442;-43
2022/09/04 05:01:33;;;;;;;6.38;5.70;;;;;;;;;;5053530;28;20513;-43
2022/09/04 05:04:09;;;;;;;7.22;6.03;;;;;;;;;;5053053;28;20025;-42
2022/09/04 05:06:53;;;;;;;7.35;6.57;;;;;;;;;;5053397;28;20074;-44
2022/09/04 05:09:46;;;;;;;7.03;6.15;;;;;;;;;;5053393;28;20350;-43
2022/09/04 05:12:31;;;;;;;6.30;5.70;;;;;;;;;;5053061;28;20041;-43
2022/09/04 05:15:14;;;;;;;7.97;6.35;;;;;;;;;;5052820;28;20060;-44
2022/09/04 05:17:50;;;;;;;5.82;5.32;;;;;;;;;;5052832;28;20029;-43
2022/09/04 05:20:28;;;;;;;6.25;5.53;;;;;;;;;;5052991;28;20079;-43
2022/09/04 05:23:12;;;;;;;9.82;5.78;;;;;;;;;;5051472;28;20024;-43
2022/09/04 05:26:08;;;;;;;6.90;5.47;;;;;;;;;;5052756;28;20039;-44
2022/09/04 05:29:10;;;;;;;6.57;5.15;;;;;;;;;;5052695;28;20032;-45
2022/09/04 05:31:43;;;;;;;8.13;4.95;;;;;;;;;;5052734;28;20025;-43
2022/09/04 05:34:24;;;;;;;7.55;5.22;;;;;;;;;;5052853;28;20021;-43
2022/09/04 05:36:59;;;;;;;5.85;5.25;;;;;;;;;;5052939;28;20092;-45
2022/09/04 05:39:45;;;;;;;4.50;4.05;;;;;;;;;;5052621;28;20044;-44
2022/09/04 05:42:17;;;;;;;6.45;4.88;;;;;;;;;;5052800;28;20025;-43
2022/09/04 05:45:03;;;;;;;6.45;5.82;;;;;;;;;;5052549;28;20078;-43
2022/09/04 05:48:00;;;;;;;5.65;5.05;;;;;;;;;;5052402;28;20082;-43
2022/09/04 05:50:48;;;;;;;5.85;5.25;;;;;;;;;;5052661;28;20029;-43
2022/09/04 05:53:28;;;;;;;5.85;5.30;;;;;;;;;;5050970;28;20477;-45
2022/09/04 05:56:03;;;;;;;5.22;4.30;;;;;;;;;;5052483;28;20105;-43
2022/09/04 05:58:53;;;;;;;3.28;2.70;;;;;;;;;;5052336;28;20025;-45
2022/09/04 06:01:21;;;;;;;7.75;4.70;;;;;;;;;;5052458;28;20021;-42
2022/09/04 06:04:08;;;;;;;4.80;3.30;;;;;;;;;;5052236;28;20025;-43
2022/09/04 06:06:57;;;;;;;4.38;3.80;;;;;;;;;;5052239;28;20488;-43
2022/09/04 06:10:02;;;;;;;4.43;4.00;;;;;;;;;;5052257;28;20055;-43
2022/09/04 06:12:49;;;;;;;3.20;2.35;;;;;;;;;;5029936;28;20029;-43
2022/09/04 06:15:20;;;;;;;5.75;3.45;;;;;;;;;;5051270;28;20044;-44
2022/09/04 06:17:54;;;;;;;1.95;1.85;;;;;;;;;;5052160;28;20091;-43
2022/09/04 06:20:31;;;;;;;3.35;2.85;;;;;;;;;;5052335;28;20074;-43
2022/09/04 06:23:20;;;;;;;3.22;3.00;;;;;;;;;;5052379;28;20384;-44
2022/09/04 06:26:04;;;;;;;3.95;3.55;;;;;;;;;;5054373;28;20118;-46
2022/09/04 06:29:00;;;;;;;3.95;2.67;;;;;;;;;;5056472;28;20032;-44
2022/09/04 06:31:25;;;;;;;3.50;3.20;;;;;;;;;;5056077;28;20477;-44
2022/09/04 06:34:03;;;;;;;2.97;2.72;;;;;;;;;;5056109;28;20035;-44
2022/09/04 06:37:05;;;;;;;2.45;2.05;;;;;;;;;;5056028;28;20040;-44
2022/09/04 06:40:01;;;;;;;3.60;2.70;;;;;;;;;;5055971;28;20036;-46
2022/09/04 06:42:36;;;;;;;2.03;1.90;;;;;;;;;;5055864;28;20098;-46
2022/09/04 06:45:10;;;;;;;2.63;2.03;;;;;;;;;;5055843;28;20439;-48
2022/09/04 06:47:58;;;;;;;2.63;2.42;;;;;;;;;;5056134;28;20028;-46
2022/09/04 06:50:32;;;;;;;2.08;1.88;;;;;;;;;;5055784;28;20102;-44
2022/09/04 06:53:17;;;;;;;4.22;2.20;;;;;;;;;;5055718;28;20063;-44
2022/09/04 06:56:07;;;;;;;1.13;1.13;;;;;;;;;;5056014;28;20471;-43
2022/09/04 06:58:54;;;;;;;1.48;1.38;;;;;;;;;;5055955;28;20415;-44
2022/09/04 07:01:43;;;;;;;2.67;2.28;;;;;;;;;;5055562;28;20112;-47
2022/09/04 07:04:20;;;;;;;4.80;2.30;;;;;;;;;;5055765;28;20427;-43
2022/09/04 07:06:52;;;;;;;2.20;2.10;;;;;;;;;;5055769;28;20087;-44
2022/09/04 07:09:34;;;;;;;1.42;1.33;;;;;;;;;;5055467;28;20131;-46
2022/09/04 07:12:17;;;;;;;2.95;2.13;;;;;;;;;;5055417;28;20125;-44
2022/09/04 07:14:57;;;;;;;3.15;2.40;;;;;;;;;;5055507;28;20051;-45
2022/09/04 07:17:39;;;;;;;4.32;2.22;;;;;;;;;;5055618;28;20033;-44
2022/09/04 07:20:18;;;;;;;2.40;2.20;;;;;;;;;;5055095;28;20025;-45
2022/09/04 07:22:56;;;;;;;2.72;2.30;;;;;;;;;;5055403;28;20056;-45
2022/09/04 07:25:39;;;;;;;2.47;2.28;;;;;;;;;;5055400;28;20021;-44
2022/09/04 07:28:14;;;;;;;1.60;1.50;;;;;;;;;;5055002;28;20032;-44
2022/09/04 07:31:25;;;;;;;2.55;1.45;;;;;;;;;;5055046;28;20469;-45
2022/09/04 07:34:30;;;;;;;1.50;1.40;;;;;;;;;;5055031;28;20040;-46
2022/09/04 07:37:16;;;;;;;1.40;1.30;;;;;;;;;;5054086;28;20538;-46
2022/09/04 07:39:55;;;;;;;1.75;1.60;;;;;;;;;;5055179;28;20033;-44
2022/09/04 07:42:34;;;;;;;4.30;1.40;;;;;;;;;;5055041;28;20021;-45
2022/09/04 07:45:00;;;;;;;2.78;1.60;;;;;;;;;;5055293;28;20029;-45
2022/09/04 07:47:54;;;;;;;1.83;1.63;;;;;;;;;;5054638;28;20030;-46
2022/09/04 07:50:28;;;;;;;1.90;1.60;;;;;;;;;;5055058;28;20366;-46
2022/09/04 07:53:21;;;;;;;6.68;1.40;;;;;;;;;;5054594;28;20119;-46
2022/09/04 07:55:50;;;;;;;1.45;1.35;;;;;;;;;;5054481;28;20074;-46
2022/09/04 07:58:37;;;;;;;2.10;1.98;;;;;;;;;;5054492;28;20040;-44
2022/09/04 08:01:30;;;;;;;1.50;1.40;;;;;;;;;;5054665;28;20033;-45
2022/09/04 08:04:14;;;;;;;1.38;1.27;;;;;;;;;;5054154;28;20045;-47
2022/09/04 08:06:47;;;;;;;1.73;1.40;;;;;;;;;;5054284;28;20025;-44
2022/09/04 08:09:34;;;;;;;4.32;1.77;;;;;;;;;;5054566;28;20060;-44
2022/09/04 08:12:33;;;;;;;0.98;0.98;;;;;;;;;;5054513;28;20058;-44
2022/09/04 08:15:27;;;;;;;1.30;1.20;;;;;;;;;;5054550;28;20031;-44
2022/09/04 08:18:00;;;;;;;1.25;1.10;;;;;;;;;;5049482;28;20045;-45
2022/09/04 08:21:05;;;;;;;2.13;1.65;;;;;;;;;;5054061;28;20538;-45
2022/09/04 08:23:42;;;;;;;1.38;1.27;;;;;;;;;;5053913;28;20139;-45
2022/09/04 08:26:23;;;;;;;1.08;1.08;;;;;;;;;;5054035;28;20036;-45
2022/09/04 08:29:22;;;;;;;1.27;0.95;;;;;;;;;;5053906;28;20021;-45
2022/09/04 08:32:09;;;;;;;1.55;1.35;;;;;;;;;;5053853;28;20028;-44
2022/09/04 08:34:45;;;;;;;0.98;0.98;;;;;;;;;;5054391;28;20033;-46
2022/09/04 08:37:41;;;;;;;1.40;1.30;;;;;;;;;;5054044;28;20052;-45
2022/09/04 08:40:31;;;;;;;1.40;1.20;;;;;;;;;;5053969;28;20071;-47
2022/09/04 08:43:11;;;;;;;1.90;1.40;;;;;;;;;;5053797;28;20024;-45
2022/09/04 08:45:58;;;;;;;1.58;1.35;;;;;;;;;;5053930;28;20373;-46
2022/09/04 08:48:41;;;;;;;1.05;1.05;;;;;;;;;;5053545;28;20112;-45
2022/09/04 08:51:17;;;;;;;1.80;1.70;;;;;;;;;;5053811;28;20025;-45
2022/09/04 08:54:20;;;;;;;1.40;1.30;;;;;;;;;;5052114;28;20048;-47
2022/09/04 08:56:54;;;;;;;1.33;1.30;;;;;;;;;;5053580;28;20127;-50
2022/09/04 08:59:54;;;;;;;1.17;1.15;;;;;;;;;;5053371;28;20031;-46
2022/09/04 09:02:41;;;;;;;1.17;1.10;;;;;;;;;;5049110;28;20060;-49
2022/09/04 09:05:52;;;;;;;1.00;1.00;;;;;;;;;;5053265;28;20021;-46
2022/09/04 09:08:45;;;;;;;2.10;1.65;;;;;;;;;;5053179;28;20048;-48
2022/09/04 09:11:20;;;;;;;1.52;1.42;;;;;;;;;;5053492;28;20384;-46
2022/09/04 09:13:58;;;;;;;1.33;1.20;;;;;;;;;;5052988;28;20066;-45
2022/09/04 09:16:41;;;;;;;1.70;1.05;;;;;;;;;;5053304;28;20037;-45
2022/09/04 09:19:21;;;;;;;1.85;1.10;;;;;;;;;;5053257;28;20071;-50
2022/09/04 09:21:55;;;;;;;;;;;;;;;;;;5053646;28;20025;-48
2022/09/04 09:24:30;;;;;;;1.00;1.00;;;;;;;;;;5053112;28;20007;-49
2022/09/04 09:27:15;;;;;;;0.90;0.90;;;;;;;;;;5052867;28;20484;-45
2022/09/04 09:29:59;;;;;;;0.93;0.90;;;;;;;;;;5052784;28;20025;-45
2022/09/04 09:32:55;;;;;;;1.30;1.20;;;;;;;;;;5052659;28;20021;-48
2022/09/04 09:35:53;;;;;;;0.82;0.82;;;;;;;;;;5052921;28;20024;-46
2022/09/04 09:38:21;;;;;;;1.10;1.10;;;;;;;;;;5053000;28;20104;-44
2022/09/04 09:40:52;;;;;;;1.30;1.20;;;;;;;;;;5052866;28;20358;-45
2022/09/04 09:43:42;;;;;;;1.45;1.30;;;;;;;;;;5052782;28;20029;-46
2022/09/04 09:46:45;;;;;;;1.77;1.67;;;;;;;;;;5052811;28;20021;-46
2022/09/04 09:49:45;;;;;;;1.25;1.20;;;;;;;;;;5052506;28;20044;-50
2022/09/04 09:52:28;;;;;;;1.50;1.40;;;;;;;;;;5052749;28;20025;-47
2022/09/04 09:55:24;;;;;;;1.10;1.10;;;;;;;;;;5052383;28;20631;-45
2022/09/04 09:58:08;;;;;;;2.67;0.90;;;;;;;;;;5052654;28;20025;-47
2022/09/04 10:00:58;;;;;;;1.42;1.05;;;;;;;;;;5052262;28;20389;-48
2022/09/04 10:03:45;;;;;;;1.63;1.52;;;;;;;;;;5052205;28;20040;-48
2022/09/04 10:06:33;;;;;;;3.00;1.50;;;;;;;;;;5052583;28;20392;-48
2022/09/04 10:09:36;;;;;;;1.05;1.05;;;;;;;;;;5052544;28;20021;-49
2022/09/04 10:12:20;;;;;;;1.02;1.02;;;;;;;;;;5052241;28;20048;-50
2022/09/04 10:15:06;;;;;;;1.20;1.10;;;;;;;;;;5052529;28;20052;-44
2022/09/04 10:17:47;;;;;;;1.38;1.25;;;;;;;;;;5052373;28;20017;-45
2022/09/04 10:20:15;;;;;;;1.20;1.20;;;;;;;;;;5052544;28;20385;-47
2022/09/04 10:23:15;;;;;;;2.03;1.40;;;;;;;;;;5052308;28;20027;-46
2022/09/04 10:25:59;;;;;;;;;;;;;;;;;;5052623;28;20055;-45
2022/09/04 10:28:42;;;;;;;1.60;1.20;;;;;;;;;;5052739;28;19913;-46
2022/09/04 10:31:38;;;;;;;2.92;1.08;;;;;;;;;;5052125;28;20032;-46
2022/09/04 10:34:06;;;;;;;1.13;1.13;;;;;;;;;;5052330;28;20040;-47
2022/09/04 10:36:54;;;;;;;1.30;1.20;;;;;;;;;;5052347;28;20380;-48
2022/09/04 10:43:11;;;;;;;1.13;1.10;;;;;;;;;;5051993;28;20040;-47
2022/09/04 10:45:46;;;;;;;1.65;1.15;;;;;;;;;;5048823;28;20041;-49
2022/09/04 10:48:39;;;;;;;1.98;1.40;;;;;;;;;;5051879;28;20539;-46
2022/09/04 10:51:33;;;;;;;1.10;1.10;;;;;;;;;;5052218;28;20115;-47
2022/09/04 10:54:24;;;;;;;2.60;1.33;;;;;;;;;;5051742;28;20053;-47
2022/09/04 10:57:08;;;;;;;0.88;0.88;;;;;;;;;;5052062;28;20446;-46
2022/09/04 10:59:50;;;;;;;0.90;0.90;;;;;;;;;;5051850;28;20495;-46
2022/09/04 11:02:24;;;;;;;1.10;1.00;;;;;;;;;;5051889;28;20036;-44
2022/09/04 11:04:58;;;;;;;1.85;1.13;;;;;;;;;;5052014;28;20021;-46
2022/09/04 11:07:45;;;;;;;1.27;1.00;;;;;;;;;;5051681;28;20531;-46
2022/09/04 11:10:29;;;;;;;1.95;1.40;;;;;;;;;;5052018;28;20059;-45
2022/09/04 11:13:22;;;;;;;1.65;1.20;;;;;;;;;;5053980;28;20025;-45
2022/09/04 11:16:17;;;;;;;1.50;1.10;;;;;;;;;;5055297;28;20124;-46
2022/09/04 11:19:01;;;;;;;1.30;1.20;;;;;;;;;;5054070;28;20430;-45
2022/09/04 11:21:42;;;;;;;0.80;0.75;;;;;;;;;;5055121;28;20017;-45
2022/09/04 11:24:41;;;;;;;1.20;1.10;;;;;;;;;;5055073;28;20033;-46
2022/09/04 11:27:37;;;;;;;3.70;1.47;;;;;;;;;;5055166;28;20056;-45
2022/09/04 11:30:20;;;;;;;1.30;1.20;;;;;;;;;;5055037;28;20029;-45
2022/09/04 11:33:03;;;;;;;2.70;1.30;;;;;;;;;;5055293;28;20025;-44
2022/09/04 11:35:54;;;;;;;3.65;1.20;;;;;;;;;;5054903;28;20078;-45
2022/09/04 11:38:44;;;;;;;1.10;1.10;;;;;;;;;;5055261;28;20028;-44
2022/09/04 11:41:14;;;;;;;;;;;;;;;;;;5055517;28;20104;-46
2022/09/04 11:43:42;;;;;;;1.08;1.08;;;;;;;;;;5054999;28;19948;-45
2022/09/04 11:46:39;;;;;;;1.88;1.23;;;;;;;;;;5054988;28;20027;-45
2022/09/04 11:49:37;;;;;;;1.83;1.15;;;;;;;;;;5054696;28;20017;-45
2022/09/04 11:52:12;;;;;;;0.93;0.90;;;;;;;;;;5054921;28;20381;-46
2022/09/04 11:54:52;;;;;;;1.35;0.95;;;;;;;;;;5054464;28;20052;-45
2022/09/04 11:57:24;;;;;;;0.85;0.85;;;;;;;;;;5054853;28;20419;-47
2022/09/04 12:00:09;;;;;;;1.20;1.10;;;;;;;;;;5054817;28;20045;-48
2022/09/04 12:02:50;;;;;;;1.15;1.15;;;;;;;;;;5054676;28;20045;-49
2022/09/04 12:05:41;;;;;;;1.25;1.15;;;;;;;;;;5054630;28;20036;-43
2022/09/04 12:08:35;;;;;;;1.17;1.17;;;;;;;;;;5054660;28;20039;-45
2022/09/04 12:11:41;;;;;;;1.35;1.02;;;;;;;;;;5054336;28;20021;-44
2022/09/04 12:14:14;;;;;;;3.05;1.00;;;;;;;;;;5054498;28;20440;-44
2022/09/04 12:16:51;;;;;;;1.20;1.13;;;;;;;;;;5054150;28;20029;-44
2022/09/04 12:19:41;;;;;;;0.60;0.60;;;;;;;;;;5054195;28;20354;-45
2022/09/04 12:22:29;;;;;;;1.00;1.00;;;;;;;;;;5054182;28;20108;-46
2022/09/04 12:25:40;;;;;;;1.10;1.00;;;;;;;;;;5053813;28;20033;-44
2022/09/04 12:28:08;;;;;;;0.90;0.90;;;;;;;;;;5036662;28;20480;-45
2022/09/04 12:30:58;;;;;;;1.10;1.10;;;;;;;;;;5053949;28;20037;-45
2022/09/04 12:33:47;;;;;;;1.52;1.23;;;;;;;;;;5053869;28;20033;-44
2022/09/04 12:36:45;;;;;;;1.10;1.10;;;;;;;;;;5053840;28;20028;-45
2022/09/04 12:39:36;;;;;;;0.90;0.90;;;;;;;;;;5053718;28;20036;-48
2022/09/04 12:42:34;;;;;;;1.27;0.77;;;;;;;;;;5054002;28;20029;-48
2022/09/04 12:45:35;;;;;;;1.17;1.17;;;;;;;;;;5053740;28;20029;-44
2022/09/04 12:48:17;;;;;;;1.33;1.23;;;;;;;;;;5053572;28;20032;-46
2022/09/04 12:51:15;;;;;;;0.90;0.90;;;;;;;;;;5053853;28;20096;-46
2022/09/04 12:54:05;;;;;;;1.30;1.20;;;;;;;;;;5053356;28;20049;-44
2022/09/04 12:56:36;;;;;;;;;;;;;;;;;;5054136;28;20025;-45
2022/09/04 12:59:26;;;;;;;1.40;1.30;;;;;;;;;;5053612;28;19913;-44
2022/09/04 13:02:48;;;;;;;1.25;1.17;;;;;;;;;;5053281;28;20017;-44
2022/09/04 13:05:28;;;;;;;1.30;1.20;;;;;;;;;;5019728;28;20054;-46
2022/09/04 13:08:27;;;;;;;3.20;1.23;;;;;;;;;;5053167;28;20025;-43
2022/09/04 13:11:12;;;;;;;1.05;0.77;;;;;;;;;;5053516;28;20381;-43
2022/09/04 13:14:13;;;;;;;0.60;0.60;;;;;;;;;;5053331;28;20041;-45
2022/09/04 13:16:53;;;;;;;1.40;1.30;;;;;;;;;;5042696;28;20045;-46
2022/09/04 13:19:34;;;;;;;1.00;1.00;;;;;;;;;;5053332;28;20035;-48
2022/09/04 13:22:26;;;;;;;1.20;1.08;;;;;;;;;;5053260;28;20033;-46
2022/09/04 13:25:13;;;;;;;1.17;1.15;;;;;;;;;;5053153;28;20056;-44
2022/09/04 13:27:47;;;;;;;1.15;1.13;;;;;;;;;;5052823;28;20575;-43
2022/09/04 13:30:20;;;;;;;1.50;1.40;;;;;;;;;;5052803;28;20538;-43
2022/09/04 13:33:11;;;;;;;1.23;1.05;;;;;;;;;;5053014;28;20473;-45
2022/09/04 13:35:40;;;;;;;1.42;1.20;;;;;;;;;;5052049;28;20468;-45
2022/09/04 13:38:17;;;;;;;1.03;1.00;;;;;;;;;;5053040;28;20053;-45
2022/09/04 13:40:53;;;;;;;1.30;1.20;;;;;;;;;;5052635;28;20527;-46
2022/09/04 13:43:58;;;;;;;1.52;1.10;;;;;;;;;;5052885;28;20037;-44
2022/09/04 13:46:28;;;;;;;1.10;1.00;;;;;;;;;;5052818;28;20037;-43
2022/09/04 13:49:04;;;;;;;1.00;1.00;;;;;;;;;;5052550;28;20032;-47
2022/09/04 13:51:36;;;;;;;0.90;0.90;;;;;;;;;;5052614;28;20385;-44
2022/09/04 13:54:16;;;;;;;2.25;1.20;;;;;;;;;;5051945;28;20053;-45
2022/09/04 13:57:15;;;;;;;1.10;1.10;;;;;;;;;;5052721;28;20158;-44
2022/09/04 13:59:43;;;;;;;1.10;1.10;;;;;;;;;;5047740;28;20044;-45
2022/09/04 14:02:13;;;;;;;1.40;0.95;;;;;;;;;;5052651;28;20078;-44
2022/09/04 14:04:49;;;;;;;1.40;1.30;;;;;;;;;;5050972;28;20029;-44
2022/09/04 14:07:38;;;;;;;1.35;1.17;;;;;;;;;;5052276;28;20021;-44
2022/09/04 14:10:21;;;;;;;1.95;1.45;;;;;;;;;;5052578;28;20552;-44
2022/09/04 14:13:22;;;;;;;1.13;1.00;;;;;;;;;;5052210;28;20057;-47
2022/09/04 14:16:07;;;;;;;2.70;1.10;;;;;;;;;;5039830;28;20047;-44
2022/09/04 14:18:36;;;;;;;1.48;1.08;;;;;;;;;;5052242;28;20029;-46
2022/09/04 14:21:13;;;;;;;1.10;1.10;;;;;;;;;;5052033;28;20033;-44
2022/09/04 14:24:03;;;;;;;1.10;1.10;;;;;;;;;;5052067;28;20032;-44
2022/09/04 14:26:46;;;;;;;1.05;1.00;;;;;;;;;;5052163;28;20033;-45
2022/09/04 14:29:27;;;;;;;1.00;1.00;;;;;;;;;;5052279;28;20071;-45
2022/09/04 14:32:21;;;;;;;1.98;1.10;;;;;;;;;;5052393;28;20044;-43
2022/09/04 14:35:20;;;;;;;1.60;1.10;;;;;;;;;;5052267;28;20029;-44
2022/09/04 14:38:07;;;;;;;3.53;1.03;;;;;;;;;;5052294;28;20082;-43
2022/09/04 14:40:36;;;;;;;1.05;1.02;;;;;;;;;;5052001;28;20036;-44
2022/09/04 14:43:23;;;;;;;1.00;1.00;;;;;;;;;;5052197;28;20107;-44
2022/09/04 14:45:50;;;;;;;1.08;1.08;;;;;;;;;;5052302;28;20029;-45
2022/09/04 14:48:18;;;;;;;0.98;0.98;;;;;;;;;;5056085;28;20029;-45
2022/09/04 14:51:21;;;;;;;1.20;1.10;;;;;;;;;;5055700;28;20029;-44
2022/09/04 14:53:50;;;;;;;1.13;1.08;;;;;;;;;;5055938;28;20025;-44
2022/09/04 14:56:44;;;;;;;0.93;0.90;;;;;;;;;;5055473;28;20052;-46
2022/09/04 14:59:13;;;;;;;0.98;0.93;;;;;;;;;;5055909;28;20033;-45
2022/09/04 15:02:01;;;;;;;2.58;1.00;;;;;;;;;;5055885;28;20480;-45
2022/09/04 15:04:34;;;;;;;2.78;1.58;;;;;;;;;;5055513;28;20028;-43
2022/09/04 15:07:41;;;;;;;1.00;1.00;;;;;;;;;;5055445;28;20025;-46
2022/09/04 15:10:12;;;;;;;1.17;0.90;;;;;;;;;;5047728;28;20033;-44
2022/09/04 15:12:52;;;;;;;1.30;1.15;;;;;;;;;;5055623;28;20025;-45
2022/09/04 15:15:34;;;;;;;3.60;1.00;;;;;;;;;;5055225;28;20051;-43
2022/09/04 15:18:09;;;;;;;3.90;1.20;;;;;;;;;;5055301;28;20029;-44
2022/09/04 15:20:39;;;;;;;2.90;1.10;;;;;;;;;;5055276;28;20025;-44
2022/09/04 15:23:30;;;;;;;1.98;1.00;;;;;;;;;;5055429;28;20482;-43
2022/09/04 15:26:06;;;;;;;0.80;0.80;;;;;;;;;;5055042;28;20036;-45
2022/09/04 15:28:48;;;;;;;0.93;0.93;;;;;;;;;;5055373;28;20021;-44
2022/09/04 15:31:27;;;;;;;1.00;1.00;;;;;;;;;;5054938;28;20036;-44
2022/09/04 15:34:00;;;;;;;0.97;0.97;;;;;;;;;;5055272;28;20028;-44
2022/09/04 15:36:26;;;;;;;1.13;1.08;;;;;;;;;;5054957;28;20271;-45
2022/09/04 15:39:04;;;;;;;0.98;0.95;;;;;;;;;;5055132;28;20024;-44
2022/09/04 15:41:57;;;;;;;0.90;0.90;;;;;;;;;;5053620;28;20029;-45
2022/09/04 15:44:39;;;;;;;1.20;1.10;;;;;;;;;;5054564;28;20076;-44
2022/09/04 15:47:22;;;;;;;2.42;1.23;;;;;;;;;;5054663;28;20477;-43
2022/09/04 15:49:59;;;;;;;1.38;0.80;;;;;;;;;;5054708;28;20033;-43
2022/09/04 15:52:56;;;;;;;1.63;1.08;;;;;;;;;;5054654;28;20057;-43
2022/09/04 15:55:26;;;;;;;2.10;1.10;;;;;;;;;;5054393;28;20544;-44
2022/09/04 15:58:03;;;;;;;2.92;0.90;;;;;;;;;;5054143;28;20017;-44
2022/09/04 16:00:33;;;;;;;1.30;1.20;;;;;;;;;;5054730;28;20024;-47
2022/09/04 16:03:13;;;;;;;3.15;1.00;;;;;;;;;;5054727;28;20025;-43
2022/09/04 16:05:56;;;;;;;1.27;1.10;;;;;;;;;;5054630;28;20037;-44
2022/09/04 16:08:36;;;;;;;1.10;1.00;;;;;;;;;;5054457;28;20025;-44
2022/09/04 16:11:20;;;;;;;3.10;1.30;;;;;;;;;;5054636;28;20036;-44
2022/09/04 16:13:48;;;;;;;1.10;1.00;;;;;;;;;;5054508;28;20048;-44
2022/09/04 16:16:22;;;;;;;1.40;1.10;;;;;;;;;;5054212;28;20472;-48
2022/09/04 16:19:33;;;;;;;1.00;0.95;;;;;;;;;;5054480;28;20029;-47
2022/09/04 16:22:17;;;;;;;2.50;1.02;;;;;;;;;;5052793;28;20485;-44
2022/09/04 16:24:50;;;;;;;1.42;1.08;;;;;;;;;;5053989;28;20056;-48
2022/09/04 16:27:22;;;;;;;1.63;1.20;;;;;;;;;;5054244;28;20021;-43
2022/09/04 16:30:01;;;;;;;1.90;1.10;;;;;;;;;;5053965;28;20495;-44